sensor_id;sensor_type;location;lat;lon;timestamp;temperature;humidity
61841;DHT22;47773;53.174;6.614;2024-02-04T00:00:43;8.00;99.90
61841;DHT22;47773;53.174;6.614;2024-02-04T00:03:09;8.00;99.90
61841;DHT22;47773;53.174;6.614;2024-02-04T00:05:34;7.90;99.90
61841;DHT22;47773;53.174;6.614;2024-02-04T00:08:00;8.00;99.90
61841;DHT22;47773;53.174;6.614;2024-02-04T00:10:28;7.90;99.90
61841;DHT22;47773;53.174;6.614;2024-02-04T00:12:54;7.90;99.90
61841;DHT22;47773;53.174;6.614;2024-02-04T00:15:19;7.90;99.90
61841;DHT22;47773;53.174;6.614;2024-02-04T00:17:45;7.90;99.90
61841;DHT22;47773;53.174;6.614;2024-02-04T00:20:11;7.80;99.90
61841;DHT22;47773;53.174;6.614;2024-02-04T00:22:36;7.80;99.90
61841;DHT22;47773;53.174;6.614;2024-02-04T00:25:02;7.80;99.90
61841;DHT22;47773;53.174;6.614;2024-02-04T00:27:33;7.80;99.90
61841;DHT22;47773;53.174;6.614;2024-02-04T00:29:59;7.80;99.90
61841;DHT22;47773;53.174;6.614;2024-02-04T00:32:25;7.80;99.90
61841;DHT22;47773;53.174;6.614;2024-02-04T00:34:52;7.80;99.90
61841;DHT22;47773;53.174;6.614;2024-02-04T00:37:18;7.70;99.90
61841;DHT22;47773;53.174;6.614;2024-02-04T00:39:44;7.80;99.90
61841;DHT22;47773;53.174;6.614;2024-02-04T00:42:09;7.70;99.90
61841;DHT22;47773;53.174;6.614;2024-02-04T00:44:36;7.70;99.90
61841;DHT22;47773;53.174;6.614;2024-02-04T00:47:01;7.70;99.90
61841;DHT22;47773;53.174;6.614;2024-02-04T00:49:27;7.70;99.90
61841;DHT22;47773;53.174;6.614;2024-02-04T00:51:53;7.70;99.90
61841;DHT22;47773;53.174;6.614;2024-02-04T00:54:19;7.70;99.90
61841;DHT22;47773;53.174;6.614;2024-02-04T00:56:44;7.60;99.90
61841;DHT22;47773;53.174;6.614;2024-02-04T00:59:10;7.60;99.90
61841;DHT22;47773;53.174;6.614;2024-02-04T01:01:37;7.60;99.90
61841;DHT22;47773;53.174;6.614;2024-02-04T01:04:03;7.60;99.90
61841;DHT22;47773;53.174;6.614;2024-02-04T01:06:28;7.60;99.90
61841;DHT22;47773;53.174;6.614;2024-02-04T01:08:56;7.60;99.90
61841;DHT22;47773;53.174;6.614;2024-02-04T01:11:22;7.50;99.90
61841;DHT22;47773;53.174;6.614;2024-02-04T01:13:47;7.50;99.90
61841;DHT22;47773;53.174;6.614;2024-02-04T01:16:13;7.60;99.90
61841;DHT22;47773;53.174;6.614;2024-02-04T01:18:39;7.50;99.90
61841;DHT22;47773;53.174;6.614;2024-02-04T01:21:04;7.60;99.90
61841;DHT22;47773;53.174;6.614;2024-02-04T01:23:30;7.50;99.90
61841;DHT22;47773;53.174;6.614;2024-02-04T01:25:56;7.50;99.90
61841;DHT22;47773;53.174;6.614;2024-02-04T01:28:21;7.50;99.90
61841;DHT22;47773;53.174;6.614;2024-02-04T01:30:47;7.50;99.90
61841;DHT22;47773;53.174;6.614;2024-02-04T01:33:12;7.50;99.90
61841;DHT22;47773;53.174;6.614;2024-02-04T01:35:38;7.40;99.90
61841;DHT22;47773;53.174;6.614;2024-02-04T01:38:04;7.40;99.90
61841;DHT22;47773;53.174;6.614;2024-02-04T01:40:29;7.50;99.90
61841;DHT22;47773;53.174;6.614;2024-02-04T01:42:56;7.40;99.90
61841;DHT22;47773;53.174;6.614;2024-02-04T01:45:21;7.40;99.90
61841;DHT22;47773;53.174;6.614;2024-02-04T01:47:48;7.40;99.90
61841;DHT22;47773;53.174;6.614;2024-02-04T01:50:14;7.40;99.90
61841;DHT22;47773;53.174;6.614;2024-02-04T01:52:41;7.40;99.90
61841;DHT22;47773;53.174;6.614;2024-02-04T01:55:08;7.30;99.90
61841;DHT22;47773;53.174;6.614;2024-02-04T01:57:33;7.40;99.90
61841;DHT22;47773;53.174;6.614;2024-02-04T02:00:03;7.30;99.90
61841;DHT22;47773;53.174;6.614;2024-02-04T02:02:30;7.40;99.90
61841;DHT22;47773;53.174;6.614;2024-02-04T02:04:57;7.30;99.90
61841;DHT22;47773;53.174;6.614;2024-02-04T02:07:23;7.30;99.90
61841;DHT22;47773;53.174;6.614;2024-02-04T02:09:52;7.30;99.90
61841;DHT22;47773;53.174;6.614;2024-02-04T02:12:27;7.30;99.90
61841;DHT22;47773;53.174;6.614;2024-02-04T02:15:10;7.30;99.90
61841;DHT22;47773;53.174;6.614;2024-02-04T02:17:52;7.30;99.90
61841;DHT22;47773;53.174;6.614;2024-02-04T02:20:30;7.30;99.90
61841;DHT22;47773;53.174;6.614;2024-02-04T02:23:07;7.30;99.90
61841;DHT22;47773;53.174;6.614;2024-02-04T02:25:35;7.20;99.90
61841;DHT22;47773;53.174;6.614;2024-02-04T02:28:01;7.20;99.90
61841;DHT22;47773;53.174;6.614;2024-02-04T02:30:27;7.20;99.90
61841;DHT22;47773;53.174;6.614;2024-02-04T02:32:53;7.20;99.90
61841;DHT22;47773;53.174;6.614;2024-02-04T02:35:19;7.10;99.90
61841;DHT22;47773;53.174;6.614;2024-02-04T02:37:47;7.10;99.90
61841;DHT22;47773;53.174;6.614;2024-02-04T02:41:23;7.10;99.90
61841;DHT22;47773;53.174;6.614;2024-02-04T02:43:18;7.10;99.90
61841;DHT22;47773;53.174;6.614;2024-02-04T02:45:44;7.10;99.90
61841;DHT22;47773;53.174;6.614;2024-02-04T02:48:11;7.10;99.90
61841;DHT22;47773;53.174;6.614;2024-02-04T02:50:37;7.20;99.90
61841;DHT22;47773;53.174;6.614;2024-02-04T02:53:03;7.20;99.90
61841;DHT22;47773;53.174;6.614;2024-02-04T02:55:29;7.10;99.90
61841;DHT22;47773;53.174;6.614;2024-02-04T02:57:55;7.10;99.90
61841;DHT22;47773;53.174;6.614;2024-02-04T03:00:20;7.10;99.90
61841;DHT22;47773;53.174;6.614;2024-02-04T03:02:46;7.10;99.90
61841;DHT22;47773;53.174;6.614;2024-02-04T03:05:13;7.10;99.90
61841;DHT22;47773;53.174;6.614;2024-02-04T03:07:40;7.10;99.90
61841;DHT22;47773;53.174;6.614;2024-02-04T03:10:06;7.10;99.90
61841;DHT22;47773;53.174;6.614;2024-02-04T03:12:32;7.10;99.90
61841;DHT22;47773;53.174;6.614;2024-02-04T03:14:58;7.10;99.90
61841;DHT22;47773;53.174;6.614;2024-02-04T03:17:23;7.10;99.90
61841;DHT22;47773;53.174;6.614;2024-02-04T03:19:49;7.10;99.90
61841;DHT22;47773;53.174;6.614;2024-02-04T03:22:17;7.10;99.90
61841;DHT22;47773;53.174;6.614;2024-02-04T03:24:43;7.10;99.90
61841;DHT22;47773;53.174;6.614;2024-02-04T03:27:09;7.10;99.90
61841;DHT22;47773;53.174;6.614;2024-02-04T03:29:35;7.10;99.90
61841;DHT22;47773;53.174;6.614;2024-02-04T03:32:01;7.10;99.90
61841;DHT22;47773;53.174;6.614;2024-02-04T03:34:26;7.10;99.90
61841;DHT22;47773;53.174;6.614;2024-02-04T03:36:52;7.10;99.90
61841;DHT22;47773;53.174;6.614;2024-02-04T03:39:17;7.10;99.90
61841;DHT22;47773;53.174;6.614;2024-02-04T03:41:43;7.10;99.90
61841;DHT22;47773;53.174;6.614;2024-02-04T03:44:09;7.10;99.90
61841;DHT22;47773;53.174;6.614;2024-02-04T03:46:34;7.10;99.90
61841;DHT22;47773;53.174;6.614;2024-02-04T03:49:00;7.10;99.90
61841;DHT22;47773;53.174;6.614;2024-02-04T03:51:26;7.10;99.90
61841;DHT22;47773;53.174;6.614;2024-02-04T03:53:52;7.10;99.90
61841;DHT22;47773;53.174;6.614;2024-02-04T03:56:17;7.10;99.90
61841;DHT22;47773;53.174;6.614;2024-02-04T03:58:44;7.10;99.90
61841;DHT22;47773;53.174;6.614;2024-02-04T04:01:10;7.10;99.90
61841;DHT22;47773;53.174;6.614;2024-02-04T04:03:39;7.10;99.90
61841;DHT22;47773;53.174;6.614;2024-02-04T04:06:05;7.20;99.90
61841;DHT22;47773;53.174;6.614;2024-02-04T04:08:31;7.20;99.90
61841;DHT22;47773;53.174;6.614;2024-02-04T04:10:57;7.10;99.90
61841;DHT22;47773;53.174;6.614;2024-02-04T04:13:22;7.20;99.90
61841;DHT22;47773;53.174;6.614;2024-02-04T04:15:48;7.10;99.90
61841;DHT22;47773;53.174;6.614;2024-02-04T04:18:13;7.10;99.90
61841;DHT22;47773;53.174;6.614;2024-02-04T04:20:40;7.20;99.90
61841;DHT22;47773;53.174;6.614;2024-02-04T04:23:06;7.20;99.90
61841;DHT22;47773;53.174;6.614;2024-02-04T04:25:31;7.20;99.90
61841;DHT22;47773;53.174;6.614;2024-02-04T04:27:57;7.20;99.90
61841;DHT22;47773;53.174;6.614;2024-02-04T04:30:23;7.20;99.90
61841;DHT22;47773;53.174;6.614;2024-02-04T04:32:49;7.30;99.90
61841;DHT22;47773;53.174;6.614;2024-02-04T04:35:15;7.30;99.90
61841;DHT22;47773;53.174;6.614;2024-02-04T04:37:40;7.30;99.90
61841;DHT22;47773;53.174;6.614;2024-02-04T04:40:07;7.30;99.90
61841;DHT22;47773;53.174;6.614;2024-02-04T04:42:32;7.30;99.90
61841;DHT22;47773;53.174;6.614;2024-02-04T04:44:58;7.30;99.90
61841;DHT22;47773;53.174;6.614;2024-02-04T04:47:24;7.30;99.90
61841;DHT22;47773;53.174;6.614;2024-02-04T04:49:49;7.30;99.90
61841;DHT22;47773;53.174;6.614;2024-02-04T04:52:16;7.30;99.90
61841;DHT22;47773;53.174;6.614;2024-02-04T04:54:42;7.40;99.90
61841;DHT22;47773;53.174;6.614;2024-02-04T04:57:08;7.40;99.90
61841;DHT22;47773;53.174;6.614;2024-02-04T04:59:34;7.30;99.90
61841;DHT22;47773;53.174;6.614;2024-02-04T05:02:01;7.40;99.90
61841;DHT22;47773;53.174;6.614;2024-02-04T05:04:27;7.40;99.90
61841;DHT22;47773;53.174;6.614;2024-02-04T05:06:53;7.40;99.90
61841;DHT22;47773;53.174;6.614;2024-02-04T05:09:18;7.40;99.90
61841;DHT22;47773;53.174;6.614;2024-02-04T05:11:44;7.40;99.90
61841;DHT22;47773;53.174;6.614;2024-02-04T05:14:09;7.40;99.90
61841;DHT22;47773;53.174;6.614;2024-02-04T05:16:35;7.40;99.90
61841;DHT22;47773;53.174;6.614;2024-02-04T05:19:02;7.40;99.90
61841;DHT22;47773;53.174;6.614;2024-02-04T05:21:28;7.40;99.90
61841;DHT22;47773;53.174;6.614;2024-02-04T05:23:54;7.40;99.90
61841;DHT22;47773;53.174;6.614;2024-02-04T05:26:20;7.40;99.90
61841;DHT22;47773;53.174;6.614;2024-02-04T05:28:46;7.40;99.90
61841;DHT22;47773;53.174;6.614;2024-02-04T05:31:12;7.50;99.90
61841;DHT22;47773;53.174;6.614;2024-02-04T05:33:37;7.50;99.90
61841;DHT22;47773;53.174;6.614;2024-02-04T05:36:03;7.50;99.90
61841;DHT22;47773;53.174;6.614;2024-02-04T05:38:30;7.50;99.90
61841;DHT22;47773;53.174;6.614;2024-02-04T05:40:55;7.50;99.90
61841;DHT22;47773;53.174;6.614;2024-02-04T05:43:21;7.60;99.90
61841;DHT22;47773;53.174;6.614;2024-02-04T05:45:47;7.60;99.90
61841;DHT22;47773;53.174;6.614;2024-02-04T05:48:12;7.60;99.90
61841;DHT22;47773;53.174;6.614;2024-02-04T05:50:39;7.60;99.90
61841;DHT22;47773;53.174;6.614;2024-02-04T05:53:04;7.60;99.90
61841;DHT22;47773;53.174;6.614;2024-02-04T05:55:30;7.50;99.90
61841;DHT22;47773;53.174;6.614;2024-02-04T05:57:56;7.50;99.90
61841;DHT22;47773;53.174;6.614;2024-02-04T06:00:22;7.50;99.90
61841;DHT22;47773;53.174;6.614;2024-02-04T06:02:48;7.50;99.90
61841;DHT22;47773;53.174;6.614;2024-02-04T06:05:14;7.50;99.90
61841;DHT22;47773;53.174;6.614;2024-02-04T06:07:42;7.50;99.90
61841;DHT22;47773;53.174;6.614;2024-02-04T06:10:11;7.50;99.90
61841;DHT22;47773;53.174;6.614;2024-02-04T06:12:36;7.60;99.90
61841;DHT22;47773;53.174;6.614;2024-02-04T06:15:04;7.60;99.90
61841;DHT22;47773;53.174;6.614;2024-02-04T06:17:29;7.60;99.90
61841;DHT22;47773;53.174;6.614;2024-02-04T06:19:55;7.60;99.90
61841;DHT22;47773;53.174;6.614;2024-02-04T06:22:22;7.60;99.90
61841;DHT22;47773;53.174;6.614;2024-02-04T06:24:48;7.60;99.90
61841;DHT22;47773;53.174;6.614;2024-02-04T06:27:14;7.60;99.90
61841;DHT22;47773;53.174;6.614;2024-02-04T06:29:39;7.60;99.90
61841;DHT22;47773;53.174;6.614;2024-02-04T06:32:05;7.60;99.90
61841;DHT22;47773;53.174;6.614;2024-02-04T06:34:31;7.60;99.90
61841;DHT22;47773;53.174;6.614;2024-02-04T06:36:57;7.60;99.90
61841;DHT22;47773;53.174;6.614;2024-02-04T06:39:22;7.60;99.90
61841;DHT22;47773;53.174;6.614;2024-02-04T06:41:48;7.60;99.90
61841;DHT22;47773;53.174;6.614;2024-02-04T06:44:13;7.60;99.90
61841;DHT22;47773;53.174;6.614;2024-02-04T06:46:39;7.60;99.90
61841;DHT22;47773;53.174;6.614;2024-02-04T06:49:06;7.60;99.90
61841;DHT22;47773;53.174;6.614;2024-02-04T06:51:32;7.60;99.90
61841;DHT22;47773;53.174;6.614;2024-02-04T06:53:57;7.70;99.90
61841;DHT22;47773;53.174;6.614;2024-02-04T06:56:23;7.70;99.90
61841;DHT22;47773;53.174;6.614;2024-02-04T06:58:49;7.70;99.90
61841;DHT22;47773;53.174;6.614;2024-02-04T07:01:14;7.70;99.90
61841;DHT22;47773;53.174;6.614;2024-02-04T07:03:40;7.70;99.90
61841;DHT22;47773;53.174;6.614;2024-02-04T07:06:06;7.70;99.90
61841;DHT22;47773;53.174;6.614;2024-02-04T07:08:32;7.70;99.90
61841;DHT22;47773;53.174;6.614;2024-02-04T07:10:57;7.70;99.90
61841;DHT22;47773;53.174;6.614;2024-02-04T07:13:23;7.70;99.90
61841;DHT22;47773;53.174;6.614;2024-02-04T07:15:48;7.80;99.90
61841;DHT22;47773;53.174;6.614;2024-02-04T07:18:14;7.80;99.90
61841;DHT22;47773;53.174;6.614;2024-02-04T07:20:40;7.90;99.90
61841;DHT22;47773;53.174;6.614;2024-02-04T07:23:05;7.80;99.90
61841;DHT22;47773;53.174;6.614;2024-02-04T07:25:31;7.90;99.90
61841;DHT22;47773;53.174;6.614;2024-02-04T07:27:57;7.90;99.90
61841;DHT22;47773;53.174;6.614;2024-02-04T07:30:24;7.90;99.90
61841;DHT22;47773;53.174;6.614;2024-02-04T07:32:49;7.90;99.90
61841;DHT22;47773;53.174;6.614;2024-02-04T07:35:15;8.00;99.90
61841;DHT22;47773;53.174;6.614;2024-02-04T07:37:41;7.90;99.90
61841;DHT22;47773;53.174;6.614;2024-02-04T07:40:07;8.00;99.90
61841;DHT22;47773;53.174;6.614;2024-02-04T07:42:33;8.00;99.90
61841;DHT22;47773;53.174;6.614;2024-02-04T07:44:58;8.00;99.90
61841;DHT22;47773;53.174;6.614;2024-02-04T07:47:24;8.00;99.90
61841;DHT22;47773;53.174;6.614;2024-02-04T07:49:50;8.00;99.90
61841;DHT22;47773;53.174;6.614;2024-02-04T07:52:16;8.00;99.90
61841;DHT22;47773;53.174;6.614;2024-02-04T07:54:42;8.00;99.90
61841;DHT22;47773;53.174;6.614;2024-02-04T07:57:09;8.10;99.90
61841;DHT22;47773;53.174;6.614;2024-02-04T07:59:35;8.10;99.90
61841;DHT22;47773;53.174;6.614;2024-02-04T08:02:01;8.10;99.90
61841;DHT22;47773;53.174;6.614;2024-02-04T08:04:27;8.10;99.90
61841;DHT22;47773;53.174;6.614;2024-02-04T08:06:54;8.10;99.90
61841;DHT22;47773;53.174;6.614;2024-02-04T08:09:19;8.10;99.90
61841;DHT22;47773;53.174;6.614;2024-02-04T08:11:45;8.10;99.90
61841;DHT22;47773;53.174;6.614;2024-02-04T08:14:12;8.10;99.90
61841;DHT22;47773;53.174;6.614;2024-02-04T08:16:39;8.20;99.90
61841;DHT22;47773;53.174;6.614;2024-02-04T08:19:05;8.30;99.90
61841;DHT22;47773;53.174;6.614;2024-02-04T08:21:32;8.30;99.90
61841;DHT22;47773;53.174;6.614;2024-02-04T08:23:58;8.20;99.90
61841;DHT22;47773;53.174;6.614;2024-02-04T08:26:24;8.20;99.90
61841;DHT22;47773;53.174;6.614;2024-02-04T08:28:50;8.20;99.90
61841;DHT22;47773;53.174;6.614;2024-02-04T08:31:16;8.20;99.90
61841;DHT22;47773;53.174;6.614;2024-02-04T08:33:42;8.20;99.90
61841;DHT22;47773;53.174;6.614;2024-02-04T08:36:08;8.30;99.90
61841;DHT22;47773;53.174;6.614;2024-02-04T08:38:36;8.30;99.90
61841;DHT22;47773;53.174;6.614;2024-02-04T08:41:03;8.30;99.90
61841;DHT22;47773;53.174;6.614;2024-02-04T08:43:28;8.30;99.90
61841;DHT22;47773;53.174;6.614;2024-02-04T08:45:54;8.30;99.90
61841;DHT22;47773;53.174;6.614;2024-02-04T08:48:19;8.40;99.90
61841;DHT22;47773;53.174;6.614;2024-02-04T08:50:45;8.40;99.90
61841;DHT22;47773;53.174;6.614;2024-02-04T08:53:11;8.40;99.90
61841;DHT22;47773;53.174;6.614;2024-02-04T08:55:36;8.50;99.90
61841;DHT22;47773;53.174;6.614;2024-02-04T08:58:02;8.50;99.90
61841;DHT22;47773;53.174;6.614;2024-02-04T09:00:28;8.50;99.90
61841;DHT22;47773;53.174;6.614;2024-02-04T09:02:53;8.60;99.90
61841;DHT22;47773;53.174;6.614;2024-02-04T09:05:19;8.60;99.90
61841;DHT22;47773;53.174;6.614;2024-02-04T09:07:45;8.60;99.90
61841;DHT22;47773;53.174;6.614;2024-02-04T09:10:11;8.60;99.90
61841;DHT22;47773;53.174;6.614;2024-02-04T09:12:38;8.70;99.90
61841;DHT22;47773;53.174;6.614;2024-02-04T09:15:04;8.80;99.90
61841;DHT22;47773;53.174;6.614;2024-02-04T09:17:30;8.80;99.90
61841;DHT22;47773;53.174;6.614;2024-02-04T09:19:58;8.80;99.90
61841;DHT22;47773;53.174;6.614;2024-02-04T09:22:24;8.80;99.90
61841;DHT22;47773;53.174;6.614;2024-02-04T09:24:50;8.90;99.90
61841;DHT22;47773;53.174;6.614;2024-02-04T09:27:16;8.90;99.90
61841;DHT22;47773;53.174;6.614;2024-02-04T09:29:41;8.90;99.90
61841;DHT22;47773;53.174;6.614;2024-02-04T09:32:07;8.90;99.90
61841;DHT22;47773;53.174;6.614;2024-02-04T09:34:33;9.00;99.90
61841;DHT22;47773;53.174;6.614;2024-02-04T09:36:59;9.00;99.90
61841;DHT22;47773;53.174;6.614;2024-02-04T09:39:25;9.00;99.90
61841;DHT22;47773;53.174;6.614;2024-02-04T09:41:50;9.00;99.90
61841;DHT22;47773;53.174;6.614;2024-02-04T09:44:16;9.00;99.90
61841;DHT22;47773;53.174;6.614;2024-02-04T09:46:42;9.00;99.90
61841;DHT22;47773;53.174;6.614;2024-02-04T09:49:09;9.10;99.90
61841;DHT22;47773;53.174;6.614;2024-02-04T09:51:35;9.10;99.90
61841;DHT22;47773;53.174;6.614;2024-02-04T09:54:04;9.20;99.90
61841;DHT22;47773;53.174;6.614;2024-02-04T09:56:34;9.20;99.90
61841;DHT22;47773;53.174;6.614;2024-02-04T09:59:01;9.20;99.90
61841;DHT22;47773;53.174;6.614;2024-02-04T10:01:27;9.30;99.90
61841;DHT22;47773;53.174;6.614;2024-02-04T10:03:53;9.30;99.90
61841;DHT22;47773;53.174;6.614;2024-02-04T10:06:18;9.30;99.90
61841;DHT22;47773;53.174;6.614;2024-02-04T10:08:44;9.30;99.90
61841;DHT22;47773;53.174;6.614;2024-02-04T10:11:11;9.30;99.90
61841;DHT22;47773;53.174;6.614;2024-02-04T10:13:47;9.30;99.90
61841;DHT22;47773;53.174;6.614;2024-02-04T10:16:14;9.30;99.90
61841;DHT22;47773;53.174;6.614;2024-02-04T10:18:44;9.30;99.90
61841;DHT22;47773;53.174;6.614;2024-02-04T10:21:20;9.30;99.90
61841;DHT22;47773;53.174;6.614;2024-02-04T10:23:50;9.40;99.90
61841;DHT22;47773;53.174;6.614;2024-02-04T10:26:16;9.40;99.90
61841;DHT22;47773;53.174;6.614;2024-02-04T10:28:44;9.50;99.90
61841;DHT22;47773;53.174;6.614;2024-02-04T10:31:10;9.50;99.90
61841;DHT22;47773;53.174;6.614;2024-02-04T10:33:39;9.60;99.90
61841;DHT22;47773;53.174;6.614;2024-02-04T10:36:05;9.50;99.90
61841;DHT22;47773;53.174;6.614;2024-02-04T10:38:32;9.60;99.90
61841;DHT22;47773;53.174;6.614;2024-02-04T10:41:00;9.60;99.90
61841;DHT22;47773;53.174;6.614;2024-02-04T10:43:33;9.70;99.90
61841;DHT22;47773;53.174;6.614;2024-02-04T10:46:19;9.70;99.90
61841;DHT22;47773;53.174;6.614;2024-02-04T10:48:54;9.70;99.90
61841;DHT22;47773;53.174;6.614;2024-02-04T10:51:26;9.80;99.90
61841;DHT22;47773;53.174;6.614;2024-02-04T10:53:54;9.80;99.90
61841;DHT22;47773;53.174;6.614;2024-02-04T10:56:37;9.80;99.90
61841;DHT22;47773;53.174;6.614;2024-02-04T10:59:03;9.80;99.90
61841;DHT22;47773;53.174;6.614;2024-02-04T11:01:29;9.80;99.90
61841;DHT22;47773;53.174;6.614;2024-02-04T11:03:55;9.80;99.90
61841;DHT22;47773;53.174;6.614;2024-02-04T11:06:23;9.80;99.90
61841;DHT22;47773;53.174;6.614;2024-02-04T11:08:49;9.70;99.90
61841;DHT22;47773;53.174;6.614;2024-02-04T11:11:16;9.70;99.90
61841;DHT22;47773;53.174;6.614;2024-02-04T11:13:45;9.70;99.90
61841;DHT22;47773;53.174;6.614;2024-02-04T11:16:31;9.70;99.90
61841;DHT22;47773;53.174;6.614;2024-02-04T11:19:28;9.70;99.90
61841;DHT22;47773;53.174;6.614;2024-02-04T11:27:13;9.70;99.90
61841;DHT22;47773;53.174;6.614;2024-02-04T11:29:41;9.70;99.90
61841;DHT22;47773;53.174;6.614;2024-02-04T11:32:07;9.70;99.90
61841;DHT22;47773;53.174;6.614;2024-02-04T11:34:33;9.70;99.90
61841;DHT22;47773;53.174;6.614;2024-02-04T11:37:00;9.70;99.90
61841;DHT22;47773;53.174;6.614;2024-02-04T11:39:26;9.70;99.90
61841;DHT22;47773;53.174;6.614;2024-02-04T11:41:52;9.70;99.90
61841;DHT22;47773;53.174;6.614;2024-02-04T11:44:24;9.70;99.90
61841;DHT22;47773;53.174;6.614;2024-02-04T11:46:50;9.70;99.90
61841;DHT22;47773;53.174;6.614;2024-02-04T11:49:19;9.70;99.90
61841;DHT22;47773;53.174;6.614;2024-02-04T11:51:47;9.70;99.90
61841;DHT22;47773;53.174;6.614;2024-02-04T11:54:15;9.70;99.90
61841;DHT22;47773;53.174;6.614;2024-02-04T11:56:42;9.70;99.90
61841;DHT22;47773;53.174;6.614;2024-02-04T11:59:09;9.80;99.90
61841;DHT22;47773;53.174;6.614;2024-02-04T12:01:35;9.80;99.90
61841;DHT22;47773;53.174;6.614;2024-02-04T12:04:15;9.80;99.90
61841;DHT22;47773;53.174;6.614;2024-02-04T12:06:41;9.90;99.90
61841;DHT22;47773;53.174;6.614;2024-02-04T12:09:08;9.90;99.90
61841;DHT22;47773;53.174;6.614;2024-02-04T12:11:36;10.00;99.90
61841;DHT22;47773;53.174;6.614;2024-02-04T12:14:04;9.90;99.90
61841;DHT22;47773;53.174;6.614;2024-02-04T12:16:31;10.00;99.90
61841;DHT22;47773;53.174;6.614;2024-02-04T12:18:58;10.00;99.90
61841;DHT22;47773;53.174;6.614;2024-02-04T12:21:25;10.00;99.90
61841;DHT22;47773;53.174;6.614;2024-02-04T12:23:51;10.00;99.90
61841;DHT22;47773;53.174;6.614;2024-02-04T12:26:17;10.00;99.90
61841;DHT22;47773;53.174;6.614;2024-02-04T12:28:43;10.00;99.90
61841;DHT22;47773;53.174;6.614;2024-02-04T12:31:16;10.00;99.90
61841;DHT22;47773;53.174;6.614;2024-02-04T12:33:43;10.00;99.90
61841;DHT22;47773;53.174;6.614;2024-02-04T12:36:09;10.00;99.90
61841;DHT22;47773;53.174;6.614;2024-02-04T12:38:35;10.10;99.90
61841;DHT22;47773;53.174;6.614;2024-02-04T12:41:04;10.10;99.90
61841;DHT22;47773;53.174;6.614;2024-02-04T12:43:30;10.10;99.90
61841;DHT22;47773;53.174;6.614;2024-02-04T12:45:56;10.10;99.90
61841;DHT22;47773;53.174;6.614;2024-02-04T12:48:23;10.00;99.90
61841;DHT22;47773;53.174;6.614;2024-02-04T12:50:51;10.00;99.90
61841;DHT22;47773;53.174;6.614;2024-02-04T12:53:19;10.00;99.90
61841;DHT22;47773;53.174;6.614;2024-02-04T12:55:44;10.00;99.90
61841;DHT22;47773;53.174;6.614;2024-02-04T12:58:11;10.00;99.90
61841;DHT22;47773;53.174;6.614;2024-02-04T13:00:40;10.00;99.90
61841;DHT22;47773;53.174;6.614;2024-02-04T13:03:07;10.00;99.90
61841;DHT22;47773;53.174;6.614;2024-02-04T13:05:37;10.00;99.90
61841;DHT22;47773;53.174;6.614;2024-02-04T13:08:03;10.00;99.90
61841;DHT22;47773;53.174;6.614;2024-02-04T13:10:34;10.00;99.90
61841;DHT22;47773;53.174;6.614;2024-02-04T13:15:36;10.00;99.90
61841;DHT22;47773;53.174;6.614;2024-02-04T13:18:02;10.00;99.90
61841;DHT22;47773;53.174;6.614;2024-02-04T13:20:27;10.00;99.90
61841;DHT22;47773;53.174;6.614;2024-02-04T13:22:53;9.90;99.90
61841;DHT22;47773;53.174;6.614;2024-02-04T13:25:20;9.90;99.90
61841;DHT22;47773;53.174;6.614;2024-02-04T13:27:47;9.90;99.90
61841;DHT22;47773;53.174;6.614;2024-02-04T13:30:13;9.90;99.90
61841;DHT22;47773;53.174;6.614;2024-02-04T13:32:42;9.80;99.90
61841;DHT22;47773;53.174;6.614;2024-02-04T13:35:08;9.80;99.90
61841;DHT22;47773;53.174;6.614;2024-02-04T13:37:39;9.80;99.90
61841;DHT22;47773;53.174;6.614;2024-02-04T13:40:06;9.80;99.90
61841;DHT22;47773;53.174;6.614;2024-02-04T13:42:32;9.70;99.90
61841;DHT22;47773;53.174;6.614;2024-02-04T13:45:00;9.80;99.90
61841;DHT22;47773;53.174;6.614;2024-02-04T13:47:26;9.70;99.90
61841;DHT22;47773;53.174;6.614;2024-02-04T13:49:52;9.70;99.90
61841;DHT22;47773;53.174;6.614;2024-02-04T13:52:17;9.70;99.90
61841;DHT22;47773;53.174;6.614;2024-02-04T13:54:43;9.70;99.90
61841;DHT22;47773;53.174;6.614;2024-02-04T13:57:09;9.70;99.90
61841;DHT22;47773;53.174;6.614;2024-02-04T13:59:35;9.70;99.90
61841;DHT22;47773;53.174;6.614;2024-02-04T14:02:00;9.60;99.90
61841;DHT22;47773;53.174;6.614;2024-02-04T14:04:27;9.60;99.90
61841;DHT22;47773;53.174;6.614;2024-02-04T14:06:53;9.60;99.90
61841;DHT22;47773;53.174;6.614;2024-02-04T14:09:18;9.60;99.90
61841;DHT22;47773;53.174;6.614;2024-02-04T14:11:44;9.50;99.90
61841;DHT22;47773;53.174;6.614;2024-02-04T14:14:09;9.50;99.90
61841;DHT22;47773;53.174;6.614;2024-02-04T14:16:35;9.50;99.90
61841;DHT22;47773;53.174;6.614;2024-02-04T14:19:01;9.40;99.90
61841;DHT22;47773;53.174;6.614;2024-02-04T14:21:26;9.50;99.90
61841;DHT22;47773;53.174;6.614;2024-02-04T14:23:52;9.40;99.90
61841;DHT22;47773;53.174;6.614;2024-02-04T14:26:18;9.40;99.90
61841;DHT22;47773;53.174;6.614;2024-02-04T14:28:44;9.40;99.90
61841;DHT22;47773;53.174;6.614;2024-02-04T14:31:10;9.40;99.90
61841;DHT22;47773;53.174;6.614;2024-02-04T14:33:35;9.40;99.90
61841;DHT22;47773;53.174;6.614;2024-02-04T14:36:01;9.40;99.90
61841;DHT22;47773;53.174;6.614;2024-02-04T14:38:27;9.40;99.90
61841;DHT22;47773;53.174;6.614;2024-02-04T14:40:53;9.30;99.90
61841;DHT22;47773;53.174;6.614;2024-02-04T14:43:18;9.30;99.90
61841;DHT22;47773;53.174;6.614;2024-02-04T14:45:47;9.30;99.90
61841;DHT22;47773;53.174;6.614;2024-02-04T14:48:12;9.30;99.90
61841;DHT22;47773;53.174;6.614;2024-02-04T14:50:38;9.30;99.90
61841;DHT22;47773;53.174;6.614;2024-02-04T14:53:04;9.30;99.90
61841;DHT22;47773;53.174;6.614;2024-02-04T14:55:29;9.30;99.90
61841;DHT22;47773;53.174;6.614;2024-02-04T14:57:55;9.30;99.90
61841;DHT22;47773;53.174;6.614;2024-02-04T15:00:20;9.30;99.90
61841;DHT22;47773;53.174;6.614;2024-02-04T15:02:50;9.30;99.90
61841;DHT22;47773;53.174;6.614;2024-02-04T15:05:16;9.30;99.90
61841;DHT22;47773;53.174;6.614;2024-02-04T15:07:42;9.30;99.90
61841;DHT22;47773;53.174;6.614;2024-02-04T15:10:08;9.40;99.90
61841;DHT22;47773;53.174;6.614;2024-02-04T15:12:36;9.30;99.90
61841;DHT22;47773;53.174;6.614;2024-02-04T15:15:03;9.30;99.90
61841;DHT22;47773;53.174;6.614;2024-02-04T15:17:29;9.40;99.90
61841;DHT22;47773;53.174;6.614;2024-02-04T15:19:55;9.40;99.90
61841;DHT22;47773;53.174;6.614;2024-02-04T15:22:21;9.50;99.90
61841;DHT22;47773;53.174;6.614;2024-02-04T15:24:47;9.40;99.90
61841;DHT22;47773;53.174;6.614;2024-02-04T15:27:13;9.40;99.90
61841;DHT22;47773;53.174;6.614;2024-02-04T15:29:39;9.40;99.90
61841;DHT22;47773;53.174;6.614;2024-02-04T15:32:06;9.40;99.90
61841;DHT22;47773;53.174;6.614;2024-02-04T15:34:32;9.40;99.90
61841;DHT22;47773;53.174;6.614;2024-02-04T15:36:59;9.30;99.90
61841;DHT22;47773;53.174;6.614;2024-02-04T15:39:25;9.40;99.90
61841;DHT22;47773;53.174;6.614;2024-02-04T15:41:51;9.30;99.90
61841;DHT22;47773;53.174;6.614;2024-02-04T15:44:16;9.40;99.90
61841;DHT22;47773;53.174;6.614;2024-02-04T15:46:45;9.40;99.90
61841;DHT22;47773;53.174;6.614;2024-02-04T15:49:17;9.40;99.90